createdAt,value
2023-01-13T00:01:48.209Z,7.32
2023-01-13T00:07:08.995Z,7.29
2023-01-13T00:12:30.215Z,7.23
2023-01-13T00:17:51.252Z,7.22
2023-01-13T00:23:12.306Z,7.23
2023-01-13T00:28:33.485Z,7.13
2023-01-13T00:34:00.986Z,7.04
2023-01-13T00:39:22.002Z,6.91
2023-01-13T00:44:43.038Z,6.90
2023-01-13T00:50:03.896Z,6.84
2023-01-13T00:55:24.770Z,6.79
2023-01-13T01:00:46.112Z,6.74
2023-01-13T01:06:16.578Z,6.76
2023-01-13T01:11:38.123Z,6.82
2023-01-13T01:16:58.979Z,6.92
2023-01-13T01:22:20.122Z,6.96
2023-01-13T01:27:40.920Z,6.94
2023-01-13T01:33:03.407Z,6.93
2023-01-13T01:38:24.281Z,6.89
2023-01-13T01:44:04.355Z,6.87
2023-01-13T01:49:34.007Z,6.84
2023-01-13T01:55:03.663Z,6.82
2023-01-13T02:00:27.172Z,6.83
2023-01-13T02:05:47.883Z,6.76
2023-01-13T02:11:46.538Z,6.79
2023-01-13T02:17:36.831Z,6.80
2023-01-13T02:23:41.793Z,6.79
2023-01-13T02:29:43.674Z,6.81
2023-01-13T02:35:12.672Z,6.74
2023-01-13T02:40:40.361Z,6.77
2023-01-13T02:46:49.732Z,6.78
2023-01-13T02:52:17.800Z,6.88
2023-01-13T02:57:41.173Z,6.91
2023-01-13T03:03:02.417Z,6.70
2023-01-13T03:08:43.213Z,6.03
2023-01-13T03:14:20.927Z,5.86
2023-01-13T03:19:53.533Z,5.82
2023-01-13T03:25:22.790Z,5.84
2023-01-13T03:30:50.021Z,5.94
2023-01-13T03:36:15.000Z,6.07
2023-01-13T03:41:48.877Z,6.21
2023-01-13T03:47:52.347Z,6.37
2023-01-13T03:53:22.899Z,6.33
2023-01-13T03:58:48.184Z,6.31
2023-01-13T04:04:32.330Z,6.34
2023-01-13T04:09:56.443Z,6.33
2023-01-13T04:15:27.985Z,6.38
2023-01-13T04:20:50.510Z,6.46
2023-01-13T04:26:11.273Z,6.49
2023-01-13T04:39:03.994Z,6.63
2023-01-13T04:44:24.377Z,6.66
2023-01-13T04:49:45.280Z,6.72
2023-01-13T04:55:07.083Z,6.76
2023-01-13T05:00:27.510Z,6.69
2023-01-13T05:05:51.479Z,6.58
2023-01-13T05:11:30.952Z,6.62
2023-01-13T05:17:00.404Z,6.55
2023-01-13T05:22:39.499Z,6.57
2023-01-13T05:28:00.693Z,6.56
2023-01-13T05:33:21.193Z,6.40
2023-01-13T05:38:42.209Z,6.26
2023-01-13T05:44:02.737Z,6.23
2023-01-13T05:49:23.749Z,6.29
2023-01-13T05:54:44.239Z,6.35
2023-01-13T06:00:05.612Z,6.31
2023-01-13T06:05:33.374Z,6.26
2023-01-13T06:10:54.023Z,6.23
2023-01-13T06:16:14.573Z,6.07
2023-01-13T06:21:35.656Z,5.89
2023-01-13T06:26:56.858Z,5.80
2023-01-13T06:32:21.607Z,5.75
2023-01-13T06:37:45.110Z,5.84
2023-01-13T06:43:17.919Z,5.81
2023-01-13T06:48:38.367Z,5.68
2023-01-13T06:53:59.151Z,5.67
2023-01-13T06:59:19.595Z,5.82
2023-01-13T07:04:40.314Z,5.96
2023-01-13T07:10:00.853Z,5.99
2023-01-13T07:15:21.772Z,6.01
2023-01-13T07:20:42.352Z,6.03
2023-01-13T07:26:03.093Z,6.10
2023-01-13T07:31:23.786Z,6.19
2023-01-13T07:36:44.212Z,6.25
2023-01-13T07:42:23.283Z,6.22
2023-01-13T07:47:43.857Z,6.20
2023-01-13T07:53:04.819Z,6.13
2023-01-13T07:58:26.196Z,6.15
2023-01-13T08:03:46.964Z,6.18
2023-01-13T08:09:08.505Z,6.23
2023-01-13T08:14:29.369Z,6.26
2023-01-13T08:19:50.100Z,6.37
2023-01-13T08:25:10.897Z,6.41
2023-01-13T08:30:31.848Z,6.43
2023-01-13T08:35:53.244Z,6.45
2023-01-13T08:41:36.271Z,6.46
2023-01-13T08:46:57.395Z,6.53
2023-01-13T08:52:17.802Z,6.58
2023-01-13T08:57:38.334Z,6.55
2023-01-13T09:02:58.928Z,6.51
2023-01-13T09:08:24.274Z,6.46
2023-01-13T09:13:46.061Z,6.41
2023-01-13T09:19:06.821Z,6.49
2023-01-13T09:24:27.439Z,6.49
2023-01-13T09:29:48.065Z,6.46
2023-01-13T09:35:09.478Z,6.50
2023-01-13T09:40:30.173Z,6.53
2023-01-13T09:46:02.067Z,6.48
2023-01-13T09:51:31.757Z,6.50
2023-01-13T09:56:53.119Z,6.55
2023-01-13T10:02:19.373Z,6.47
2023-01-13T10:07:49.553Z,6.36
2023-01-13T10:13:20.535Z,6.30
2023-01-13T10:19:02.998Z,6.17
2023-01-13T10:24:45.856Z,6.17
2023-01-13T10:30:25.995Z,6.14
2023-01-13T10:35:52.732Z,6.16
2023-01-13T10:41:18.064Z,6.22
2023-01-13T10:46:53.471Z,6.20
2023-01-13T10:52:30.599Z,6.33
2023-01-13T10:57:51.078Z,6.44
2023-01-13T11:03:17.789Z,6.52
2023-01-13T11:08:45.871Z,6.87
2023-01-13T11:14:36.930Z,6.87
2023-01-13T11:20:05.166Z,7.01
2023-01-13T11:25:33.821Z,7.11
2023-01-13T11:31:14.537Z,7.09
2023-01-13T11:36:40.155Z,7.03
2023-01-13T11:42:21.804Z,7.02
2023-01-13T11:47:46.889Z,7.22
2023-01-13T11:53:22.555Z,7.60
2023-01-13T11:59:00.899Z,7.64
2023-01-13T12:04:29.428Z,7.89
2023-01-13T12:10:13.653Z,8.08
2023-01-13T12:16:02.130Z,9.17
2023-01-13T12:21:54.686Z,9.03
2023-01-13T12:27:23.719Z,8.56
2023-01-13T12:32:45.609Z,8.17
2023-01-13T12:38:24.251Z,7.99
2023-01-13T12:44:07.137Z,8.20
2023-01-13T12:49:35.216Z,7.99
2023-01-13T12:54:55.556Z,7.53
2023-01-13T13:00:16.923Z,7.03
2023-01-13T13:06:07.769Z,6.53
2023-01-13T13:11:56.444Z,6.37
2023-01-13T13:17:19.606Z,6.41
2023-01-13T13:22:49.977Z,6.57
2023-01-13T13:28:18.245Z,6.94
2023-01-13T13:33:58.464Z,6.58
2023-01-13T13:39:43.105Z,6.24
2023-01-13T13:45:40.052Z,6.12
2023-01-13T13:51:04.698Z,6.48
2023-01-13T13:56:29.051Z,6.62
2023-01-13T14:02:00.730Z,6.66
2023-01-13T14:07:21.914Z,6.52
2023-01-13T14:12:42.399Z,6.52
2023-01-13T14:18:06.337Z,6.46
2023-01-13T14:23:30.221Z,6.59
2023-01-13T14:28:51.099Z,6.77
2023-01-13T14:34:31.751Z,6.99
2023-01-13T14:39:54.049Z,7.03
2023-01-13T14:45:24.445Z,7.03
2023-01-13T14:50:46.685Z,7.14
2023-01-13T14:56:36.435Z,7.06
2023-01-13T15:01:57.311Z,6.99
2023-01-13T15:07:25.565Z,6.96
2023-01-13T15:12:49.228Z,7.00
2023-01-13T15:18:17.343Z,6.97
2023-01-13T15:23:41.056Z,6.85
2023-01-13T15:29:05.517Z,6.75
2023-01-13T15:34:26.232Z,6.70
2023-01-13T15:39:46.756Z,6.74
2023-01-13T15:45:27.918Z,6.87
2023-01-13T15:50:48.378Z,6.91
2023-01-13T15:56:18.797Z,6.95
2023-01-13T16:01:39.165Z,7.03
2023-01-13T16:06:59.594Z,6.96
2023-01-13T16:12:20.466Z,6.92
2023-01-13T16:17:42.277Z,6.85
2023-01-13T16:23:02.807Z,6.76
2023-01-13T16:28:28.085Z,6.71
2023-01-13T16:33:48.620Z,6.47
2023-01-13T16:39:20.972Z,6.21
2023-01-13T16:44:41.377Z,6.02
2023-01-13T16:50:02.955Z,6.36
2023-01-13T16:55:23.519Z,6.57
2023-01-13T17:00:48.050Z,6.59
2023-01-13T17:06:11.050Z,6.68
2023-01-13T17:11:32.110Z,6.66
2023-01-13T17:16:55.445Z,6.67
2023-01-13T17:22:15.901Z,6.71
2023-01-13T17:27:36.360Z,6.71
2023-01-13T17:32:56.882Z,6.71
2023-01-13T17:38:17.732Z,6.75
2023-01-13T17:43:38.306Z,6.67
2023-01-13T17:48:58.735Z,6.61
2023-01-13T17:54:19.525Z,6.67
2023-01-13T17:59:41.436Z,6.78
2023-01-13T18:05:01.993Z,6.85
2023-01-13T18:10:23.130Z,6.90
2023-01-13T18:15:43.648Z,6.99
2023-01-13T18:21:23.436Z,6.92
2023-01-13T18:27:04.764Z,6.89
2023-01-13T18:32:31.465Z,6.90
2023-01-13T18:37:53.174Z,6.87
2023-01-13T18:43:14.491Z,6.90
2023-01-13T18:48:35.416Z,6.92
2023-01-13T18:53:56.003Z,6.83
2023-01-13T18:59:17.563Z,6.71
2023-01-13T19:04:38.958Z,6.69
2023-01-13T19:10:00.472Z,6.56
2023-01-13T19:15:21.012Z,6.41
2023-01-13T19:20:41.971Z,6.40
2023-01-13T19:26:05.958Z,6.49
2023-01-13T19:31:26.488Z,6.55
2023-01-13T19:36:47.079Z,6.65
2023-01-13T19:42:26.723Z,6.67
2023-01-13T19:47:47.140Z,6.79
2023-01-13T19:53:15.984Z,6.82
2023-01-13T19:58:36.797Z,6.85
2023-01-13T20:04:03.097Z,6.82
2023-01-13T20:09:23.583Z,6.82
2023-01-13T20:14:45.153Z,6.86
2023-01-13T20:20:06.668Z,6.83
2023-01-13T20:25:31.038Z,6.82
2023-01-13T20:30:53.281Z,6.86
2023-01-13T20:36:26.368Z,6.84
2023-01-13T20:42:05.824Z,6.84
2023-01-13T20:47:28.033Z,6.81
2023-01-13T20:52:48.650Z,6.87
2023-01-13T20:58:09.231Z,6.83
2023-01-13T21:03:30.052Z,6.85
2023-01-13T21:08:54.130Z,6.89
2023-01-13T21:14:33.280Z,6.80
2023-01-13T21:19:53.715Z,6.78
2023-01-13T21:25:15.714Z,6.83
2023-01-13T21:30:38.814Z,6.84
2023-01-13T21:36:08.090Z,6.70
2023-01-13T21:41:47.616Z,6.70
2023-01-13T21:47:37.588Z,6.68
2023-01-13T21:52:58.844Z,6.71
2023-01-13T21:58:19.260Z,6.81
2023-01-13T22:03:59.030Z,6.80
2023-01-13T22:09:19.639Z,6.79
2023-01-13T22:14:40.144Z,6.85
2023-01-13T22:20:01.361Z,6.84
2023-01-13T22:25:21.696Z,6.73
2023-01-13T22:30:42.437Z,6.72
2023-01-13T22:36:03.130Z,6.70
2023-01-13T22:41:23.928Z,6.69
2023-01-13T22:46:44.662Z,6.71
2023-01-13T22:52:05.826Z,6.79
2023-01-13T22:57:36.043Z,6.73
2023-01-13T23:02:59.333Z,6.70
2023-01-13T23:08:19.861Z,6.63
2023-01-13T23:13:43.155Z,6.61
2023-01-13T23:19:05.796Z,6.73
2023-01-13T23:24:27.875Z,6.78
2023-01-13T23:29:49.030Z,6.75
2023-01-13T23:35:09.900Z,6.76
2023-01-13T23:40:30.704Z,6.71
2023-01-13T23:45:51.656Z,6.61
2023-01-13T23:51:13.433Z,6.64
2023-01-13T23:56:35.041Z,6.62
